Time;durP1;ratioP1;P1;durP2;ratioP2;P2;SDS_P1;SDS_P2;PMS_P1;PMS_P2;Temp;Humidity;BMP_temperature;BMP_pressure;BME280_temperature;BME280_humidity;BME280_pressure;Samples;Min_cycle;Max_cycle;Signal;HPM_P1;HPM_P2
2023/07/27 00:01:22;;;;;;;6.03;3.63;;;15.40;67.10;;;;;;5054398;28;20123;-69
2023/07/27 00:03:48;;;;;;;5.90;3.85;;;15.40;67.10;;;;;;5055198;28;20041;-69
2023/07/27 00:06:13;;;;;;;4.78;3.72;;;15.40;67.10;;;;;;5053890;28;20091;-70
2023/07/27 00:08:39;;;;;;;4.40;3.28;;;15.50;67.10;;;;;;5054262;28;20045;-69
2023/07/27 00:11:05;;;;;;;5.03;3.97;;;15.50;67.10;;;;;;5054427;28;20049;-69
2023/07/27 00:13:30;;;;;;;5.47;3.92;;;15.60;67.10;;;;;;5037368;28;20396;-69
2023/07/27 00:15:56;;;;;;;5.70;3.70;;;15.50;67.00;;;;;;5053417;28;20095;-69
2023/07/27 00:18:22;;;;;;;4.85;3.40;;;15.50;66.90;;;;;;5021089;28;20047;-69
2023/07/27 00:20:47;;;;;;;5.82;3.53;;;15.60;67.00;;;;;;5054339;28;20114;-69
2023/07/27 00:23:13;;;;;;;4.60;3.30;;;15.60;66.90;;;;;;5053980;28;20068;-69
2023/07/27 00:25:39;;;;;;;4.93;3.38;;;15.60;66.90;;;;;;5052697;28;20049;-69
2023/07/27 00:28:04;;;;;;;5.25;3.28;;;15.60;66.90;;;;;;5053806;28;20106;-69
2023/07/27 00:30:30;;;;;;;5.32;3.92;;;15.70;66.90;;;;;;5036983;28;20028;-70
2023/07/27 00:32:57;;;;;;;5.80;4.53;;;15.60;66.80;;;;;;5037163;28;20041;-70
2023/07/27 00:35:23;;;;;;;7.20;5.05;;;15.70;66.90;;;;;;5053238;28;20078;-71
2023/07/27 00:37:48;;;;;;;5.95;4.78;;;15.70;66.80;;;;;;5053441;28;20044;-69
2023/07/27 00:40:14;;;;;;;7.28;5.15;;;15.60;66.70;;;;;;5053889;28;20131;-69
2023/07/27 00:42:40;;;;;;;8.73;5.85;;;15.60;66.80;;;;;;5053577;28;20049;-69
2023/07/27 00:45:06;;;;;;;8.55;5.47;;;15.60;66.90;;;;;;5036254;28;20041;-70
2023/07/27 00:47:32;;;;;;;8.93;5.70;;;15.60;66.90;;;;;;5053224;28;20494;-69
2023/07/27 00:49:57;;;;;;;7.80;4.70;;;15.60;67.00;;;;;;5053215;28;20125;-69
2023/07/27 00:52:23;;;;;;;7.78;4.47;;;15.50;66.90;;;;;;5036772;28;20126;-70
2023/07/27 00:54:49;;;;;;;8.18;5.07;;;15.50;67.10;;;;;;5036707;28;20051;-69
2023/07/27 00:57:15;;;;;;;6.82;5.35;;;15.50;67.30;;;;;;5052371;28;20047;-69
2023/07/27 00:59:41;;;;;;;5.93;4.47;;;15.50;67.40;;;;;;5053139;28;20048;-69
2023/07/27 01:02:07;;;;;;;7.53;4.78;;;15.50;67.40;;;;;;5053571;28;20128;-69
2023/07/27 01:04:32;;;;;;;6.88;5.13;;;15.50;67.50;;;;;;5036206;28;20115;-69
2023/07/27 01:06:58;;;;;;;7.97;5.32;;;15.40;67.40;;;;;;5036368;28;20041;-69
2023/07/27 01:09:24;;;;;;;5.90;4.47;;;15.40;67.40;;;;;;5053383;28;20041;-69
2023/07/27 01:12:01;;;;;;;7.60;5.13;;;15.40;67.40;;;;;;5052619;28;20443;-69
2023/07/27 01:14:52;;;;;;;6.43;4.70;;;15.40;67.50;;;;;;5052581;28;20489;-69
2023/07/27 01:17:28;;;;;;;6.10;4.15;;;15.40;67.30;;;;;;5053196;28;20079;-69
2023/07/27 01:20:06;;;;;;;6.88;4.63;;;15.40;67.40;;;;;;5052667;28;20056;-69
2023/07/27 01:22:32;;;;;;;6.68;4.75;;;15.40;67.40;;;;;;5052896;28;20049;-69
2023/07/27 01:25:31;;;;;;;5.55;4.35;;;15.40;67.40;;;;;;5051891;28;20118;-69
2023/07/27 01:28:17;;;;;;;5.50;4.05;;;15.50;67.30;;;;;;5052781;28;20488;-69
2023/07/27 01:31:02;;;;;;;6.45;4.60;;;15.50;67.40;;;;;;5052887;28;20052;-69
2023/07/27 01:33:35;;;;;;;5.82;4.40;;;15.50;67.50;;;;;;5052437;28;20496;-69
2023/07/27 01:36:10;;;;;;;7.45;5.07;;;15.50;67.40;;;;;;5052187;28;20048;-69
2023/07/27 01:38:39;;;;;;;5.32;3.83;;;15.50;67.30;;;;;;5052142;28;20072;-69
2023/07/27 01:41:07;;;;;;;7.30;4.32;;;15.50;67.70;;;;;;5052532;28;20044;-69
2023/07/27 01:43:34;;;;;;;10.40;4.80;;;15.50;67.20;;;;;;5052577;28;20072;-70
2023/07/27 01:46:01;;;;;;;6.50;4.35;;;15.50;67.10;;;;;;5051623;28;20626;-69
2023/07/27 01:48:28;;;;;;;6.40;4.43;;;15.50;67.20;;;;;;5052254;28;20037;-69
2023/07/27 01:50:55;;;;;;;6.28;5.05;;;15.50;67.30;;;;;;5035823;28;20090;-69
2023/07/27 01:53:22;;;;;;;5.65;4.25;;;15.50;67.20;;;;;;5035807;28;20036;-69
2023/07/27 01:55:49;;;;;;;6.20;4.95;;;15.50;67.20;;;;;;5052091;28;20045;-69
2023/07/27 01:58:16;;;;;;;6.93;5.18;;;15.50;67.10;;;;;;5052576;28;20447;-68
2023/07/27 02:00:42;;;;;;;7.07;5.00;;;15.50;67.00;;;;;;5051291;28;20121;-69
2023/07/27 02:03:10;;;;;;;8.65;5.50;;;15.50;67.00;;;;;;5050690;28;20048;-69
2023/07/27 02:05:35;;;;;;;5.82;4.63;;;15.50;67.00;;;;;;5049509;28;20047;-69
2023/07/27 02:08:01;;;;;;;6.30;4.78;;;15.50;67.00;;;;;;5050440;28;20048;-69
2023/07/27 02:10:29;;;;;;;6.50;5.05;;;15.50;67.00;;;;;;5050055;28;20112;-69
2023/07/27 02:13:04;;;;;;;9.50;6.38;;;15.50;67.10;;;;;;5049920;28;20111;-69
2023/07/27 02:15:39;;;;;;;7.88;4.55;;;15.50;67.20;;;;;;5049627;28;20047;-69
2023/07/27 02:18:15;;;;;;;5.18;3.88;;;15.50;67.20;;;;;;5049648;28;20037;-69
2023/07/27 02:20:42;;;;;;;4.68;3.50;;;15.40;67.20;;;;;;5033209;28;20052;-69
2023/07/27 02:23:10;;;;;;;6.22;3.33;;;15.40;67.20;;;;;;5049904;28;20147;-69
2023/07/27 02:25:36;;;;;;;5.93;4.60;;;15.50;67.30;;;;;;5049083;28;20273;-69
2023/07/27 02:28:02;;;;;;;6.93;4.45;;;15.50;67.40;;;;;;5049916;28;20032;-69
2023/07/27 02:30:27;;;;;;;5.75;3.30;;;15.50;67.50;;;;;;5049918;28;20097;-69
2023/07/27 02:32:53;;;;;;;5.00;3.60;;;15.50;67.40;;;;;;5049583;28;20241;-69
2023/07/27 02:35:20;;;;;;;4.80;3.80;;;15.50;67.40;;;;;;5048996;28;20049;-69
2023/07/27 02:37:46;;;;;;;4.85;3.55;;;15.60;67.40;;;;;;5050056;28;20148;-69
2023/07/27 02:40:12;;;;;;;7.78;4.20;;;15.60;67.40;;;;;;5049966;28;20060;-69
2023/07/27 02:42:37;;;;;;;7.53;5.80;;;15.60;67.40;;;;;;5049451;28;20045;-69
2023/07/27 02:45:03;;;;;;;9.50;6.07;;;15.60;67.70;;;;;;5048826;28;20209;-69
2023/07/27 02:47:29;;;;;;;8.93;7.00;;;15.60;68.00;;;;;;5016817;28;20431;-69
2023/07/27 02:49:55;;;;;;;9.60;6.47;;;15.60;68.30;;;;;;5050165;28;20040;-68
2023/07/27 02:52:20;;;;;;;12.50;7.57;;;15.60;68.40;;;;;;5034036;28;20048;-69
2023/07/27 02:54:46;;;;;;;8.75;6.43;;;15.70;68.50;;;;;;5033044;28;20048;-70
2023/07/27 02:57:12;;;;;;;7.53;5.95;;;15.60;68.80;;;;;;5017649;28;20045;-70
2023/07/27 02:59:37;;;;;;;8.95;6.35;;;15.60;69.10;;;;;;5049887;28;20492;-70
2023/07/27 03:02:03;;;;;;;10.13;6.15;;;15.60;69.30;;;;;;5033459;28;20045;-70
2023/07/27 03:04:29;;;;;;;9.48;6.53;;;15.60;69.50;;;;;;5032907;28;20045;-70
2023/07/27 03:06:55;;;;;;;8.65;5.28;;;15.60;69.80;;;;;;5033270;28;20072;-70
2023/07/27 03:09:20;;;;;;;8.90;6.47;;;15.60;70.00;;;;;;5033295;28;20043;-70
2023/07/27 03:11:47;;;;;;;12.00;7.60;;;15.60;70.40;;;;;;5033020;28;20226;-70
2023/07/27 03:14:13;;;;;;;7.88;6.22;;;15.60;70.70;;;;;;5032669;28;20033;-70
2023/07/27 03:16:38;;;;;;;9.63;6.93;;;15.60;70.90;;;;;;5049544;28;20068;-70
2023/07/27 03:19:04;;;;;;;9.57;6.80;;;15.60;71.10;;;;;;5033341;28;20044;-70
2023/07/27 03:21:30;;;;;;;9.68;7.43;;;15.60;71.50;;;;;;5034896;28;20194;-70
2023/07/27 03:23:55;;;;;;;11.45;7.53;;;15.60;71.60;;;;;;5052776;28;20036;-70
2023/07/27 03:26:21;;;;;;;11.73;7.68;;;15.60;71.90;;;;;;5053202;28;20072;-70
2023/07/27 03:28:47;;;;;;;9.55;6.63;;;15.50;72.10;;;;;;5053179;28;20052;-70
2023/07/27 03:31:22;;;;;;;10.52;7.13;;;15.50;72.30;;;;;;5053869;28;20122;-70
2023/07/27 03:33:48;;;;;;;8.02;7.10;;;15.50;72.70;;;;;;5053157;28;20072;-70
2023/07/27 03:36:16;;;;;;;10.40;6.85;;;15.50;73.00;;;;;;5053036;28;20037;-70
2023/07/27 03:38:42;;;;;;;13.07;7.57;;;15.40;73.20;;;;;;5036470;28;20060;-70
2023/07/27 03:41:08;;;;;;;10.35;6.75;;;15.40;73.30;;;;;;5053089;28;20045;-70
2023/07/27 03:43:34;;;;;;;12.02;7.95;;;15.40;73.50;;;;;;5054375;28;20055;-70
2023/07/27 03:45:59;;;;;;;9.93;7.25;;;15.30;73.80;;;;;;5052761;28;20041;-70
2023/07/27 03:48:25;;;;;;;9.75;7.43;;;15.30;74.00;;;;;;5052828;28;20041;-70
2023/07/27 03:50:52;;;;;;;9.93;8.13;;;15.30;74.20;;;;;;5053493;28;20041;-70
2023/07/27 03:53:18;;;;;;;9.82;7.47;;;15.30;74.50;;;;;;5053184;28;20037;-70
2023/07/27 03:55:45;;;;;;;9.85;7.50;;;15.30;74.70;;;;;;5053134;28;20103;-70
2023/07/27 03:58:10;;;;;;;10.10;7.93;;;15.30;74.90;;;;;;5053162;28;20045;-70
2023/07/27 04:00:36;;;;;;;10.60;8.45;;;15.20;75.30;;;;;;5053470;28;20152;-70
2023/07/27 04:03:02;;;;;;;11.95;8.45;;;15.20;75.50;;;;;;5052674;28;20438;-70
2023/07/27 04:05:27;;;;;;;10.63;8.30;;;15.20;75.80;;;;;;5052802;28;20099;-70
2023/07/27 04:07:53;;;;;;;8.88;7.45;;;15.10;76.20;;;;;;5053307;28;20044;-70
2023/07/27 04:10:19;;;;;;;10.88;7.68;;;15.10;76.30;;;;;;5052286;28;20391;-70
2023/07/27 04:12:44;;;;;;;11.25;8.40;;;15.10;76.60;;;;;;5052846;28;20081;-70
2023/07/27 04:15:10;;;;;;;12.05;8.40;;;15.10;76.90;;;;;;5052471;28;20041;-70
2023/07/27 04:17:36;;;;;;;10.52;7.80;;;15.10;77.20;;;;;;5052995;28;20392;-71
2023/07/27 04:20:02;;;;;;;8.73;6.68;;;15.00;77.40;;;;;;5052069;28;20041;-70
2023/07/27 04:22:28;;;;;;;9.38;7.65;;;15.00;77.90;;;;;;5036039;28;20120;-70
2023/07/27 04:24:54;;;;;;;10.05;7.55;;;15.00;77.60;;;;;;5052188;28;20053;-70
2023/07/27 04:27:19;;;;;;;9.60;7.25;;;15.00;77.90;;;;;;5035705;28;20128;-70
2023/07/27 04:29:45;;;;;;;10.18;7.22;;;15.00;78.10;;;;;;5052358;28;20098;-70
2023/07/27 04:32:11;;;;;;;8.85;6.80;;;14.90;78.30;;;;;;5052562;28;20380;-70
2023/07/27 04:34:36;;;;;;;8.93;6.78;;;14.90;78.40;;;;;;5053065;28;20044;-70
2023/07/27 04:37:03;;;;;;;8.82;6.35;;;14.90;78.70;;;;;;5052347;28;20041;-70
2023/07/27 04:39:29;;;;;;;11.68;7.15;;;14.90;78.70;;;;;;5052157;28;20500;-70
2023/07/27 04:41:54;;;;;;;9.63;7.00;;;14.90;79.00;;;;;;5019362;28;20055;-70
2023/07/27 04:44:20;;;;;;;10.35;6.80;;;14.90;79.10;;;;;;5051502;28;20037;-69
2023/07/27 04:46:46;;;;;;;10.50;7.05;;;14.90;79.30;;;;;;5051910;28;20041;-69
2023/07/27 04:49:11;;;;;;;11.95;7.10;;;14.90;79.60;;;;;;5052380;28;20037;-69
2023/07/27 04:51:37;;;;;;;10.40;7.53;;;14.90;79.70;;;;;;5050730;28;20048;-69
2023/07/27 04:54:04;;;;;;;9.50;6.72;;;14.80;79.90;;;;;;5051785;28;20037;-69
2023/07/27 04:56:30;;;;;;;10.48;6.75;;;14.80;80.00;;;;;;5052113;28;20090;-69
2023/07/27 04:58:56;;;;;;;9.65;5.95;;;14.80;80.10;;;;;;5035315;28;20041;-69
2023/07/27 05:01:22;;;;;;;8.18;6.25;;;14.80;80.20;;;;;;5051976;28;20041;-70
2023/07/27 05:03:48;;;;;;;10.48;7.25;;;14.80;80.30;;;;;;5051789;28;20086;-70
2023/07/27 05:06:13;;;;;;;8.55;6.63;;;14.80;80.50;;;;;;5035298;28;20040;-69
2023/07/27 05:08:39;;;;;;;9.07;6.60;;;14.90;80.60;;;;;;5051474;28;20091;-70
2023/07/27 05:11:08;;;;;;;9.85;7.05;;;14.80;80.60;;;;;;5051820;28;20041;-70
2023/07/27 05:13:34;;;;;;;8.45;5.93;;;14.80;80.70;;;;;;5051388;28;20041;-70
2023/07/27 05:16:01;;;;;;;12.32;7.93;;;14.80;80.80;;;;;;5051659;28;20539;-70
2023/07/27 05:18:27;;;;;;;9.43;6.22;;;14.80;80.90;;;;;;5051412;28;20349;-70
2023/07/27 05:20:54;;;;;;;10.98;7.40;;;14.80;81.10;;;;;;5050915;28;20051;-70
2023/07/27 05:23:20;;;;;;;8.32;6.15;;;14.80;81.10;;;;;;5034785;28;20049;-70
2023/07/27 05:25:47;;;;;;;9.30;6.05;;;14.80;81.30;;;;;;5050915;28;20049;-70
2023/07/27 05:28:13;;;;;;;9.43;6.93;;;14.80;81.30;;;;;;5051155;28;20655;-70
2023/07/27 05:30:38;;;;;;;9.70;7.10;;;14.80;81.70;;;;;;5034887;28;20080;-70
2023/07/27 05:33:04;;;;;;;11.55;7.97;;;14.80;81.70;;;;;;5050835;28;20427;-70
2023/07/27 05:35:30;;;;;;;11.20;7.95;;;14.80;81.90;;;;;;5051581;28;20392;-70
2023/07/27 05:37:56;;;;;;;11.10;7.90;;;14.80;82.10;;;;;;5050948;28;20048;-70
2023/07/27 05:40:21;;;;;;;11.65;8.40;;;14.80;82.10;;;;;;5051128;28;20041;-70
2023/07/27 05:42:47;;;;;;;10.93;8.68;;;14.80;82.40;;;;;;5050998;28;20053;-70
2023/07/27 05:45:13;;;;;;;11.02;8.07;;;14.90;82.60;;;;;;5051062;28;20041;-69
2023/07/27 05:47:39;;;;;;;11.68;7.97;;;14.80;82.60;;;;;;5051821;28;20036;-69
2023/07/27 05:50:06;;;;;;;10.15;8.35;;;14.90;82.90;;;;;;5019106;28;20485;-69
2023/07/27 05:52:32;;;;;;;13.55;8.80;;;14.90;83.00;;;;;;5051458;28;20072;-69
2023/07/27 05:54:57;;;;;;;10.85;8.68;;;14.90;83.20;;;;;;5051157;28;20448;-69
2023/07/27 05:57:24;;;;;;;15.40;8.90;;;15.00;83.20;;;;;;5052054;28;20044;-70
2023/07/27 05:59:50;;;;;;;10.70;8.13;;;15.00;83.30;;;;;;5051331;28;20040;-70
2023/07/27 06:02:15;;;;;;;14.35;9.02;;;14.90;83.30;;;;;;5050802;28;20049;-69
2023/07/27 06:04:41;;;;;;;10.93;8.85;;;15.00;83.40;;;;;;5014642;28;20075;-70
2023/07/27 06:07:07;;;;;;;12.20;9.48;;;15.00;83.70;;;;;;5030863;28;20086;-70
2023/07/27 06:09:36;;;;;;;10.50;8.60;;;15.00;83.80;;;;;;5031318;28;20045;-70
2023/07/27 06:12:11;;;;;;;11.25;8.20;;;15.00;84.10;;;;;;5037122;28;20048;-71
2023/07/27 06:14:39;;;;;;;12.25;9.20;;;15.00;84.10;;;;;;5051265;28;20071;-70
2023/07/27 06:17:05;;;;;;;12.07;8.65;;;15.00;84.10;;;;;;5050577;28;20403;-70
2023/07/27 06:19:31;;;;;;;12.10;8.90;;;15.00;84.30;;;;;;5050729;28;20132;-70
2023/07/27 06:21:57;;;;;;;11.73;8.57;;;15.00;84.40;;;;;;5049998;28;20130;-70
2023/07/27 06:24:22;;;;;;;11.73;8.65;;;15.00;84.40;;;;;;5050457;28;20045;-70
2023/07/27 06:26:48;;;;;;;12.40;9.55;;;15.10;84.50;;;;;;5050633;28;20057;-70
2023/07/27 06:29:14;;;;;;;11.75;8.43;;;15.10;84.50;;;;;;5050551;28;20526;-70
2023/07/27 06:31:39;;;;;;;14.00;9.80;;;15.10;84.50;;;;;;5049701;28;20041;-70
2023/07/27 06:34:05;;;;;;;11.80;8.70;;;15.10;84.60;;;;;;5050496;28;20080;-71
2023/07/27 06:36:31;;;;;;;12.20;9.55;;;15.10;84.70;;;;;;5033285;28;20388;-70
2023/07/27 06:38:56;;;;;;;14.32;9.90;;;15.10;84.60;;;;;;5050153;28;20041;-72
2023/07/27 06:41:25;;;;;;;12.38;9.73;;;15.20;84.80;;;;;;5033705;28;20090;-71
2023/07/27 06:43:52;;;;;;;11.90;9.13;;;15.20;84.80;;;;;;5048800;28;20453;-71
2023/07/27 06:46:18;;;;;;;12.43;8.70;;;15.20;84.80;;;;;;5049971;28;20491;-71
2023/07/27 06:48:46;;;;;;;9.93;8.82;;;15.20;84.80;;;;;;5050412;28;20107;-71
2023/07/27 06:51:15;;;;;;;12.55;9.77;;;15.20;84.80;;;;;;5050513;28;20037;-71
2023/07/27 06:53:40;;;;;;;12.27;9.70;;;15.20;84.90;;;;;;5050651;28;20377;-71
2023/07/27 06:56:06;;;;;;;10.20;8.65;;;15.20;84.90;;;;;;5050956;28;20112;-71
2023/07/27 06:58:32;;;;;;;11.82;8.95;;;15.20;85.00;;;;;;5036705;28;20045;-71
2023/07/27 07:00:58;;;;;;;10.45;8.88;;;15.20;85.00;;;;;;5027121;28;20053;-71
2023/07/27 07:03:24;;;;;;;11.15;9.20;;;15.20;85.00;;;;;;5054178;28;20059;-69
2023/07/27 07:05:53;;;;;;;12.00;9.27;;;15.30;85.20;;;;;;5037615;28;20044;-69
2023/07/27 07:08:19;;;;;;;12.70;9.98;;;15.30;85.20;;;;;;5053982;28;20500;-69
2023/07/27 07:10:45;;;;;;;9.40;8.25;;;15.30;85.30;;;;;;5052770;28;20045;-69
2023/07/27 07:13:11;;;;;;;12.57;9.80;;;15.30;85.20;;;;;;5072864;28;20055;-68
2023/07/27 07:15:37;;;;;;;10.35;9.20;;;15.30;85.20;;;;;;5060068;28;20052;-68
2023/07/27 07:18:02;;;;;;;9.02;7.93;;;15.30;85.30;;;;;;5037644;28;20499;-68
2023/07/27 07:20:28;;;;;;;11.20;8.50;;;15.30;85.40;;;;;;5038345;28;20511;-69
2023/07/27 07:22:54;;;;;;;9.52;8.52;;;15.40;85.50;;;;;;5038286;28;20083;-69
2023/07/27 07:25:20;;;;;;;10.00;7.50;;;15.40;85.40;;;;;;5039245;28;20045;-70
2023/07/27 07:27:46;;;;;;;9.48;7.80;;;15.40;85.50;;;;;;5037860;28;20103;-69
2023/07/27 07:30:11;;;;;;;9.40;7.82;;;15.40;85.60;;;;;;5037926;28;20037;-69
2023/07/27 07:32:37;;;;;;;8.40;6.40;;;15.40;85.60;;;;;;5054110;28;20037;-69
2023/07/27 07:35:03;;;;;;;9.38;7.38;;;15.40;85.60;;;;;;5052549;28;20060;-69
2023/07/27 07:37:29;;;;;;;8.75;6.85;;;15.40;85.60;;;;;;5053422;28;20502;-69
2023/07/27 07:39:55;;;;;;;7.60;6.78;;;15.40;85.70;;;;;;5037400;28;20052;-69
2023/07/27 07:42:21;;;;;;;7.40;6.40;;;15.40;85.80;;;;;;5053785;28;20049;-69
2023/07/27 07:44:47;;;;;;;7.05;5.95;;;15.40;85.80;;;;;;5053995;28;20055;-69
2023/07/27 07:47:13;;;;;;;6.15;5.18;;;15.50;85.80;;;;;;5054390;28;20045;-69
2023/07/27 07:49:38;;;;;;;8.80;5.97;;;15.50;85.80;;;;;;5054175;28;20464;-70
2023/07/27 07:52:04;;;;;;;6.55;5.43;;;15.50;85.80;;;;;;5053664;28;20523;-70
2023/07/27 07:54:30;;;;;;;5.40;4.90;;;15.50;85.90;;;;;;5053888;28;20041;-70
2023/07/27 07:56:56;;;;;;;7.60;5.75;;;15.50;86.00;;;;;;5054283;28;20040;-71
2023/07/27 07:59:22;;;;;;;6.85;5.90;;;15.50;86.00;;;;;;5037528;28;20045;-70
2023/07/27 08:01:48;;;;;;;5.88;4.95;;;15.50;86.10;;;;;;5053871;28;20064;-71
2023/07/27 08:04:14;;;;;;;6.82;4.88;;;15.60;86.30;;;;;;5053498;28;20440;-72
2023/07/27 08:06:40;;;;;;;6.07;4.82;;;15.50;86.30;;;;;;5053660;28;20049;-71
2023/07/27 08:09:06;;;;;;;5.95;4.60;;;15.60;86.40;;;;;;5053481;28;20448;-69
2023/07/27 08:11:33;;;;;;;5.43;4.93;;;15.60;86.40;;;;;;5055038;28;20099;-68
2023/07/27 08:14:01;;;;;;;5.35;4.22;;;15.60;86.60;;;;;;5053868;28;20186;-69
2023/07/27 08:16:30;;;;;;;5.43;4.10;;;15.60;86.60;;;;;;5053389;28;20048;-70
2023/07/27 08:18:56;;;;;;;4.63;4.13;;;15.70;86.80;;;;;;5053294;28;20033;-70
2023/07/27 08:21:21;;;;;;;3.83;3.33;;;15.70;86.80;;;;;;5053341;28;20055;-70
2023/07/27 08:23:47;;;;;;;4.40;4.00;;;15.70;86.90;;;;;;5053556;28;20045;-70
2023/07/27 08:26:14;;;;;;;4.88;3.80;;;15.80;86.90;;;;;;5053084;28;20065;-70
2023/07/27 08:28:41;;;;;;;5.85;4.07;;;15.80;87.00;;;;;;5036502;28;20100;-70
2023/07/27 08:31:07;;;;;;;4.40;4.00;;;15.80;86.90;;;;;;5053168;28;20033;-70
2023/07/27 08:33:34;;;;;;;5.95;5.35;;;15.80;86.90;;;;;;5053275;28;20033;-69
2023/07/27 08:36:00;;;;;;;5.25;4.05;;;15.90;86.90;;;;;;5053448;28;20405;-70
2023/07/27 08:38:27;;;;;;;5.38;3.97;;;15.90;86.90;;;;;;5053198;28;20435;-70
2023/07/27 08:40:57;;;;;;;7.38;6.60;;;15.90;86.90;;;;;;5053325;28;20370;-70
2023/07/27 08:43:24;;;;;;;6.63;5.60;;;15.90;87.00;;;;;;5036717;28;20130;-70
2023/07/27 08:45:50;;;;;;;7.45;6.75;;;15.90;86.90;;;;;;5052767;28;20049;-71
2023/07/27 08:48:16;;;;;;;6.68;5.97;;;16.00;87.00;;;;;;5052880;28;20072;-70
2023/07/27 08:50:47;;;;;;;5.28;4.20;;;16.00;87.00;;;;;;5053000;28;20103;-71
2023/07/27 08:53:14;;;;;;;4.57;3.70;;;16.00;87.10;;;;;;5052911;28;20048;-70
2023/07/27 08:55:40;;;;;;;4.65;2.83;;;16.10;87.00;;;;;;5053966;28;20419;-71
2023/07/27 08:58:10;;;;;;;3.85;3.17;;;16.10;87.10;;;;;;5052258;28;20500;-71
2023/07/27 09:00:38;;;;;;;4.88;2.83;;;16.10;87.20;;;;;;5035192;28;20083;-71
2023/07/27 09:03:05;;;;;;;4.18;3.13;;;16.20;87.30;;;;;;5052203;28;20441;-70
2023/07/27 09:05:38;;;;;;;4.30;3.13;;;16.20;87.30;;;;;;5051668;28;20124;-71
2023/07/27 09:08:08;;;;;;;3.97;3.20;;;16.20;87.50;;;;;;5035319;28;20545;-69
2023/07/27 09:10:36;;;;;;;3.33;3.03;;;16.30;87.50;;;;;;5052229;28;20041;-70
2023/07/27 09:13:02;;;;;;;3.08;2.78;;;16.30;87.40;;;;;;5035879;28;20472;-70
2023/07/27 09:15:28;;;;;;;3.53;2.90;;;16.30;87.50;;;;;;5036329;28;20057;-70
2023/07/27 09:17:58;;;;;;;3.20;2.63;;;16.40;87.70;;;;;;5052113;28;20067;-70
2023/07/27 09:20:24;;;;;;;4.72;2.97;;;16.40;87.80;;;;;;5051827;28;20068;-70
2023/07/27 09:22:50;;;;;;;3.58;2.47;;;16.50;87.90;;;;;;5052702;28;20045;-70
2023/07/27 09:25:22;;;;;;;2.95;2.60;;;16.50;87.90;;;;;;5052038;28;20114;-70
2023/07/27 09:27:51;;;;;;;2.80;2.35;;;16.60;88.00;;;;;;5052271;28;20098;-70
2023/07/27 09:30:17;;;;;;;2.97;2.42;;;16.60;87.90;;;;;;5051918;28;20167;-70
2023/07/27 09:32:43;;;;;;;2.90;2.40;;;16.60;87.90;;;;;;5052497;28;20135;-70
2023/07/27 09:35:13;;;;;;;2.50;2.20;;;16.70;87.90;;;;;;5035698;28;20048;-70
2023/07/27 09:37:42;;;;;;;3.42;2.55;;;16.70;88.10;;;;;;5051673;28;20091;-70
2023/07/27 09:40:15;;;;;;;2.97;2.67;;;16.80;88.20;;;;;;5051803;28;20044;-70
2023/07/27 09:42:43;;;;;;;3.33;2.83;;;16.80;88.60;;;;;;5052164;28;20066;-70
2023/07/27 09:45:09;;;;;;;3.30;3.00;;;16.90;88.20;;;;;;5035201;28;20299;-70
2023/07/27 09:47:35;;;;;;;3.30;3.00;;;16.90;88.60;;;;;;5051782;28;20373;-70
2023/07/27 09:50:02;;;;;;;3.50;3.20;;;17.00;88.30;;;;;;5051823;28;20036;-70
2023/07/27 09:52:29;;;;;;;4.20;3.03;;;17.00;88.30;;;;;;5051974;28;20045;-70
2023/07/27 09:54:57;;;;;;;3.28;2.97;;;17.10;88.50;;;;;;5035135;28;20106;-69
2023/07/27 09:57:24;;;;;;;3.03;2.50;;;17.20;88.60;;;;;;5051480;28;20124;-69
2023/07/27 09:59:50;;;;;;;4.07;3.50;;;17.30;88.60;;;;;;5051560;28;20049;-69
2023/07/27 10:02:16;;;;;;;4.40;3.70;;;17.30;88.60;;;;;;5035420;28;20118;-70
2023/07/27 10:04:45;;;;;;;3.95;3.55;;;17.40;88.70;;;;;;5034690;28;20136;-69
2023/07/27 10:07:13;;;;;;;3.55;3.25;;;17.50;88.80;;;;;;5035163;28;20053;-70
2023/07/27 10:09:38;;;;;;;3.50;3.20;;;17.50;88.70;;;;;;5051788;28;20045;-69
2023/07/27 10:12:04;;;;;;;3.15;2.55;;;17.60;88.60;;;;;;5051715;28;20504;-69
2023/07/27 10:14:32;;;;;;;4.13;3.25;;;17.70;88.50;;;;;;5052135;28;20385;-69
2023/07/27 10:17:08;;;;;;;3.53;3.20;;;17.70;88.30;;;;;;5051933;28;20108;-69
2023/07/27 10:19:45;;;;;;;3.70;3.40;;;17.80;88.30;;;;;;5051509;28;20037;-70
2023/07/27 10:22:13;;;;;;;5.00;3.50;;;17.80;88.10;;;;;;5051903;28;20392;-69
2023/07/27 10:24:54;;;;;;;3.83;3.50;;;17.90;88.00;;;;;;5050799;28;20071;-69
2023/07/27 10:27:21;;;;;;;4.10;3.65;;;17.90;87.80;;;;;;5025512;28;20516;-69
2023/07/27 10:30:10;;;;;;;3.88;3.58;;;18.00;87.80;;;;;;5041691;28;20068;-69
2023/07/27 10:32:36;;;;;;;3.90;3.50;;;18.10;87.70;;;;;;5034737;28;20044;-69
2023/07/27 10:35:10;;;;;;;4.30;3.90;;;18.10;87.70;;;;;;5050645;28;20505;-69
2023/07/27 10:38:04;;;;;;;3.95;3.63;;;18.10;87.70;;;;;;5044790;28;20037;-70
2023/07/27 10:40:30;;;;;;;4.07;3.67;;;18.20;87.50;;;;;;5045833;28;20060;-70
2023/07/27 10:42:57;;;;;;;4.32;3.85;;;18.20;87.50;;;;;;5042732;28;20459;-70
2023/07/27 10:45:26;;;;;;;4.38;3.97;;;18.20;87.30;;;;;;5027098;28;20126;-70
2023/07/27 10:47:56;;;;;;;3.97;3.67;;;18.30;87.40;;;;;;5043821;28;20154;-70
2023/07/27 10:50:23;;;;;;;4.45;4.05;;;18.40;87.30;;;;;;5026813;28;20511;-69
2023/07/27 10:52:53;;;;;;;4.43;4.03;;;18.40;87.30;;;;;;5026636;28;20043;-70
2023/07/27 10:55:22;;;;;;;4.43;3.75;;;18.40;87.20;;;;;;5043024;28;20059;-70
2023/07/27 10:57:48;;;;;;;4.85;3.78;;;18.50;87.20;;;;;;5043591;28;20064;-70
2023/07/27 11:00:14;;;;;;;4.45;4.05;;;18.50;87.20;;;;;;5026895;28;20066;-70
2023/07/27 11:02:42;;;;;;;4.78;4.38;;;18.50;87.10;;;;;;5045088;28;20481;-70
2023/07/27 11:05:09;;;;;;;4.82;4.32;;;18.60;87.30;;;;;;5027325;28;20195;-70
2023/07/27 11:07:37;;;;;;;5.22;4.72;;;18.60;87.30;;;;;;5043935;28;20045;-70
2023/07/27 11:10:08;;;;;;;4.55;4.15;;;18.60;87.40;;;;;;5043612;28;20063;-70
2023/07/27 11:12:54;;;;;;;5.22;4.45;;;18.70;87.40;;;;;;5043089;28;20041;-70
2023/07/27 11:15:25;;;;;;;4.35;3.70;;;18.80;87.30;;;;;;5042962;28;20126;-70
2023/07/27 11:17:53;;;;;;;4.95;4.55;;;18.80;87.40;;;;;;5026700;28;20051;-70
2023/07/27 11:20:22;;;;;;;4.32;3.95;;;18.80;87.50;;;;;;5042325;28;20063;-70
2023/07/27 11:22:49;;;;;;;3.50;3.20;;;18.80;87.50;;;;;;5043339;28;20049;-70
2023/07/27 11:25:14;;;;;;;2.97;2.78;;;18.90;87.50;;;;;;5042972;28;20033;-70
2023/07/27 11:27:40;;;;;;;4.38;3.97;;;19.00;87.50;;;;;;5025633;28;20499;-70
2023/07/27 11:30:12;;;;;;;3.80;3.50;;;19.00;87.30;;;;;;5043489;28;20049;-70
2023/07/27 11:32:38;;;;;;;3.60;3.28;;;19.00;87.20;;;;;;5043027;28;20037;-70
2023/07/27 11:35:04;;;;;;;3.13;2.70;;;19.00;87.00;;;;;;5044100;28;20072;-70
2023/07/27 11:37:31;;;;;;;2.92;2.63;;;19.10;86.80;;;;;;5043417;28;20107;-70
2023/07/27 11:39:57;;;;;;;2.17;1.98;;;19.10;86.50;;;;;;5012985;28;20041;-71
2023/07/27 11:42:35;;;;;;;4.55;2.15;;;19.20;86.30;;;;;;5051817;28;20342;-70
2023/07/27 11:45:00;;;;;;;2.22;2.03;;;19.20;86.20;;;;;;5053192;28;20037;-70
2023/07/27 11:47:26;;;;;;;3.42;2.97;;;19.20;86.10;;;;;;5037005;28;20484;-70
2023/07/27 11:49:57;;;;;;;2.55;2.22;;;19.30;86.30;;;;;;5036480;28;20435;-71
2023/07/27 11:52:24;;;;;;;3.08;2.78;;;19.40;86.30;;;;;;5053781;28;20124;-70
2023/07/27 11:54:52;;;;;;;2.92;2.30;;;19.40;86.20;;;;;;5053693;28;20516;-70
2023/07/27 11:57:18;;;;;;;2.63;2.40;;;19.40;86.00;;;;;;5053935;28;20045;-71
2023/07/27 12:00:12;;;;;;;3.85;2.70;;;19.50;85.80;;;;;;5054154;28;20064;-70
2023/07/27 12:02:44;;;;;;;3.85;2.95;;;19.50;85.30;;;;;;5054033;28;20037;-75
2023/07/27 12:05:14;;;;;;;3.70;3.40;;;19.60;85.30;;;;;;5053761;28;20114;-74
2023/07/27 12:07:40;;;;;;;5.32;3.40;;;19.60;85.10;;;;;;5053747;28;20049;-75
2023/07/27 12:10:11;;;;;;;3.20;2.90;;;19.60;85.10;;;;;;5053822;28;20045;-75
2023/07/27 12:12:59;;;;;;;3.65;3.35;;;19.70;85.30;;;;;;5036685;28;20048;-75
2023/07/27 12:15:30;;;;;;;3.70;3.40;;;19.70;85.20;;;;;;5052749;28;20068;-75
2023/07/27 12:18:06;;;;;;;3.72;3.42;;;19.70;85.30;;;;;;5037056;28;20076;-74
2023/07/27 12:20:35;;;;;;;4.00;2.90;;;19.80;85.20;;;;;;5035768;28;20423;-74
2023/07/27 12:23:02;;;;;;;3.38;2.88;;;19.80;85.00;;;;;;5053401;28;20049;-74
2023/07/27 12:25:31;;;;;;;2.40;2.20;;;19.80;85.00;;;;;;5036392;28;20064;-74
2023/07/27 12:27:57;;;;;;;2.40;2.20;;;19.80;85.20;;;;;;5036929;28;20033;-72
2023/07/27 12:30:23;;;;;;;3.55;2.80;;;19.90;85.30;;;;;;5046437;28;20492;-76
2023/07/27 12:32:49;;;;;;;2.85;2.45;;;19.90;85.20;;;;;;5047930;28;20041;-70
2023/07/27 12:35:15;;;;;;;2.88;1.95;;;19.90;84.90;;;;;;5046259;28;20040;-71
2023/07/27 12:37:43;;;;;;;3.78;2.00;;;19.90;84.60;;;;;;5030985;28;20041;-69
2023/07/27 12:40:09;;;;;;;4.43;2.80;;;19.90;84.40;;;;;;5046667;28;20040;-73
2023/07/27 12:42:35;;;;;;;2.85;2.08;;;19.90;84.30;;;;;;5030248;28;20066;-70
2023/07/27 12:45:01;;;;;;;4.90;2.28;;;19.90;84.20;;;;;;5045114;28;20067;-68
2023/07/27 12:47:27;;;;;;;2.45;2.15;;;20.00;84.20;;;;;;5014008;28;20433;-69